sensor_id;sensor_type;location;lat;lon;timestamp;temperature;humidity
5176;DHT22;2607;50.934;6.934;2023-08-06T00:02:04;15.80;99.90
5176;DHT22;2607;50.934;6.934;2023-08-06T00:04:30;15.80;99.90
5176;DHT22;2607;50.934;6.934;2023-08-06T00:06:55;15.80;99.90
5176;DHT22;2607;50.934;6.934;2023-08-06T00:09:21;15.80;99.90
5176;DHT22;2607;50.934;6.934;2023-08-06T00:11:47;15.70;99.90
5176;DHT22;2607;50.934;6.934;2023-08-06T00:14:13;15.70;99.90
5176;DHT22;2607;50.934;6.934;2023-08-06T00:16:43;15.70;99.90
5176;DHT22;2607;50.934;6.934;2023-08-06T00:19:08;15.60;99.90
5176;DHT22;2607;50.934;6.934;2023-08-06T00:21:34;15.60;99.90
5176;DHT22;2607;50.934;6.934;2023-08-06T00:23:59;15.50;99.90
5176;DHT22;2607;50.934;6.934;2023-08-06T00:26:25;15.50;99.90
5176;DHT22;2607;50.934;6.934;2023-08-06T00:28:50;15.60;99.90
5176;DHT22;2607;50.934;6.934;2023-08-06T00:31:17;15.50;99.90
5176;DHT22;2607;50.934;6.934;2023-08-06T00:33:42;15.50;99.90
5176;DHT22;2607;50.934;6.934;2023-08-06T00:36:08;15.50;99.90
5176;DHT22;2607;50.934;6.934;2023-08-06T00:38:33;15.50;99.90
5176;DHT22;2607;50.934;6.934;2023-08-06T00:40:59;15.50;99.90
5176;DHT22;2607;50.934;6.934;2023-08-06T00:43:24;15.50;99.90
5176;DHT22;2607;50.934;6.934;2023-08-06T00:45:50;15.50;99.90
5176;DHT22;2607;50.934;6.934;2023-08-06T00:48:15;15.50;99.90
5176;DHT22;2607;50.934;6.934;2023-08-06T00:50:41;15.50;99.90
5176;DHT22;2607;50.934;6.934;2023-08-06T00:53:07;15.40;99.90
5176;DHT22;2607;50.934;6.934;2023-08-06T00:55:33;15.50;99.90
5176;DHT22;2607;50.934;6.934;2023-08-06T00:57:59;15.50;99.90
5176;DHT22;2607;50.934;6.934;2023-08-06T01:00:26;15.50;99.90
5176;DHT22;2607;50.934;6.934;2023-08-06T01:02:52;15.50;99.90
5176;DHT22;2607;50.934;6.934;2023-08-06T01:05:18;15.50;99.90
5176;DHT22;2607;50.934;6.934;2023-08-06T01:10:23;15.50;99.90
5176;DHT22;2607;50.934;6.934;2023-08-06T01:16:03;15.50;99.90
5176;DHT22;2607;50.934;6.934;2023-08-06T01:18:31;15.50;99.90
5176;DHT22;2607;50.934;6.934;2023-08-06T01:20:57;15.50;99.90
5176;DHT22;2607;50.934;6.934;2023-08-06T01:23:23;15.50;99.90
5176;DHT22;2607;50.934;6.934;2023-08-06T01:31:20;15.50;99.90
5176;DHT22;2607;50.934;6.934;2023-08-06T01:33:48;15.50;99.90
5176;DHT22;2607;50.934;6.934;2023-08-06T01:36:16;15.60;99.90
5176;DHT22;2607;50.934;6.934;2023-08-06T01:38:43;15.60;99.90
5176;DHT22;2607;50.934;6.934;2023-08-06T01:41:09;15.60;99.90
5176;DHT22;2607;50.934;6.934;2023-08-06T01:43:34;15.60;99.90
5176;DHT22;2607;50.934;6.934;2023-08-06T01:46:00;15.50;99.90
5176;DHT22;2607;50.934;6.934;2023-08-06T01:48:25;15.60;99.90
5176;DHT22;2607;50.934;6.934;2023-08-06T01:50:51;15.50;99.90
5176;DHT22;2607;50.934;6.934;2023-08-06T01:53:17;15.50;99.90
5176;DHT22;2607;50.934;6.934;2023-08-06T01:55:48;15.50;99.90
5176;DHT22;2607;50.934;6.934;2023-08-06T01:58:13;15.50;99.90
5176;DHT22;2607;50.934;6.934;2023-08-06T02:00:40;15.50;99.90
5176;DHT22;2607;50.934;6.934;2023-08-06T02:03:05;15.50;99.90
5176;DHT22;2607;50.934;6.934;2023-08-06T02:05:31;15.50;99.90
5176;DHT22;2607;50.934;6.934;2023-08-06T02:07:56;15.60;99.90
5176;DHT22;2607;50.934;6.934;2023-08-06T02:10:22;15.60;99.90
5176;DHT22;2607;50.934;6.934;2023-08-06T02:12:48;15.60;99.90
5176;DHT22;2607;50.934;6.934;2023-08-06T02:15:13;15.50;99.90
5176;DHT22;2607;50.934;6.934;2023-08-06T02:17:39;15.50;99.90
5176;DHT22;2607;50.934;6.934;2023-08-06T02:20:05;15.50;99.90
5176;DHT22;2607;50.934;6.934;2023-08-06T02:22:30;15.50;99.90
5176;DHT22;2607;50.934;6.934;2023-08-06T02:24:56;15.50;99.90
5176;DHT22;2607;50.934;6.934;2023-08-06T02:27:22;15.50;99.90
5176;DHT22;2607;50.934;6.934;2023-08-06T02:29:47;15.50;99.90
5176;DHT22;2607;50.934;6.934;2023-08-06T02:32:13;15.50;99.90
5176;DHT22;2607;50.934;6.934;2023-08-06T02:34:38;15.50;99.90
5176;DHT22;2607;50.934;6.934;2023-08-06T02:37:04;15.40;99.90
5176;DHT22;2607;50.934;6.934;2023-08-06T02:39:29;15.50;99.90
5176;DHT22;2607;50.934;6.934;2023-08-06T02:41:55;15.40;99.90
5176;DHT22;2607;50.934;6.934;2023-08-06T02:44:21;15.50;99.90
5176;DHT22;2607;50.934;6.934;2023-08-06T02:46:46;15.50;99.90
5176;DHT22;2607;50.934;6.934;2023-08-06T02:49:12;15.50;99.90
5176;DHT22;2607;50.934;6.934;2023-08-06T02:51:37;15.50;99.90
5176;DHT22;2607;50.934;6.934;2023-08-06T02:54:03;15.50;99.90
5176;DHT22;2607;50.934;6.934;2023-08-06T02:56:28;15.50;99.90
5176;DHT22;2607;50.934;6.934;2023-08-06T02:58:54;15.50;99.90
5176;DHT22;2607;50.934;6.934;2023-08-06T03:01:19;15.50;99.90
5176;DHT22;2607;50.934;6.934;2023-08-06T03:03:45;15.50;99.90
5176;DHT22;2607;50.934;6.934;2023-08-06T03:06:10;15.50;99.90
5176;DHT22;2607;50.934;6.934;2023-08-06T03:08:37;15.50;99.90
5176;DHT22;2607;50.934;6.934;2023-08-06T03:11:02;15.50;99.90
5176;DHT22;2607;50.934;6.934;2023-08-06T03:13:28;15.60;99.90
5176;DHT22;2607;50.934;6.934;2023-08-06T03:15:54;15.50;99.90
5176;DHT22;2607;50.934;6.934;2023-08-06T03:18:20;15.50;99.90
5176;DHT22;2607;50.934;6.934;2023-08-06T03:20:46;15.60;99.90
5176;DHT22;2607;50.934;6.934;2023-08-06T03:23:12;15.60;99.90
5176;DHT22;2607;50.934;6.934;2023-08-06T03:25:37;15.60;99.90
5176;DHT22;2607;50.934;6.934;2023-08-06T03:28:03;15.60;99.90
5176;DHT22;2607;50.934;6.934;2023-08-06T03:30:29;15.60;99.90
5176;DHT22;2607;50.934;6.934;2023-08-06T03:32:54;15.50;99.90
5176;DHT22;2607;50.934;6.934;2023-08-06T03:35:20;15.60;99.90
5176;DHT22;2607;50.934;6.934;2023-08-06T03:37:46;15.50;99.90
5176;DHT22;2607;50.934;6.934;2023-08-06T03:40:11;15.60;99.90
5176;DHT22;2607;50.934;6.934;2023-08-06T03:42:37;15.50;99.90
5176;DHT22;2607;50.934;6.934;2023-08-06T03:45:03;15.50;99.90
5176;DHT22;2607;50.934;6.934;2023-08-06T03:47:28;15.50;99.90
5176;DHT22;2607;50.934;6.934;2023-08-06T03:49:54;15.50;99.90
5176;DHT22;2607;50.934;6.934;2023-08-06T03:52:19;15.50;99.90
5176;DHT22;2607;50.934;6.934;2023-08-06T03:54:45;15.40;99.90
5176;DHT22;2607;50.934;6.934;2023-08-06T03:57:10;15.40;99.90
5176;DHT22;2607;50.934;6.934;2023-08-06T03:59:36;15.40;99.90
5176;DHT22;2607;50.934;6.934;2023-08-06T04:02:02;15.40;99.90
5176;DHT22;2607;50.934;6.934;2023-08-06T04:04:27;15.40;99.90
5176;DHT22;2607;50.934;6.934;2023-08-06T04:06:53;15.40;99.90
5176;DHT22;2607;50.934;6.934;2023-08-06T04:09:19;15.40;99.90
5176;DHT22;2607;50.934;6.934;2023-08-06T04:11:44;15.40;99.90
5176;DHT22;2607;50.934;6.934;2023-08-06T04:14:10;15.40;99.90
5176;DHT22;2607;50.934;6.934;2023-08-06T04:16:35;15.40;99.90
5176;DHT22;2607;50.934;6.934;2023-08-06T04:19:01;15.40;99.90
5176;DHT22;2607;50.934;6.934;2023-08-06T04:21:27;15.40;99.90
5176;DHT22;2607;50.934;6.934;2023-08-06T04:23:52;15.30;99.90
5176;DHT22;2607;50.934;6.934;2023-08-06T04:26:18;15.30;99.90
5176;DHT22;2607;50.934;6.934;2023-08-06T04:28:43;15.30;99.90
5176;DHT22;2607;50.934;6.934;2023-08-06T04:31:09;15.30;99.90
5176;DHT22;2607;50.934;6.934;2023-08-06T04:33:34;15.30;99.90
5176;DHT22;2607;50.934;6.934;2023-08-06T04:36:00;15.30;99.90
5176;DHT22;2607;50.934;6.934;2023-08-06T04:38:26;15.30;99.90
5176;DHT22;2607;50.934;6.934;2023-08-06T04:40:52;15.30;99.90
5176;DHT22;2607;50.934;6.934;2023-08-06T04:43:17;15.30;99.90
5176;DHT22;2607;50.934;6.934;2023-08-06T04:45:50;15.40;99.90
5176;DHT22;2607;50.934;6.934;2023-08-06T04:48:16;15.40;99.90
5176;DHT22;2607;50.934;6.934;2023-08-06T04:50:45;15.40;99.90
5176;DHT22;2607;50.934;6.934;2023-08-06T04:53:11;15.40;99.90
5176;DHT22;2607;50.934;6.934;2023-08-06T04:55:37;15.40;99.90
5176;DHT22;2607;50.934;6.934;2023-08-06T04:58:03;15.40;99.90
5176;DHT22;2607;50.934;6.934;2023-08-06T05:00:28;15.40;99.90
5176;DHT22;2607;50.934;6.934;2023-08-06T05:02:54;15.40;99.90
5176;DHT22;2607;50.934;6.934;2023-08-06T05:05:19;15.40;99.90
5176;DHT22;2607;50.934;6.934;2023-08-06T05:07:48;15.40;99.90
5176;DHT22;2607;50.934;6.934;2023-08-06T05:10:14;15.50;99.90
5176;DHT22;2607;50.934;6.934;2023-08-06T05:12:40;15.50;99.90
5176;DHT22;2607;50.934;6.934;2023-08-06T05:15:05;15.50;99.90
5176;DHT22;2607;50.934;6.934;2023-08-06T05:17:31;15.50;99.90
5176;DHT22;2607;50.934;6.934;2023-08-06T05:19:56;15.50;99.90
5176;DHT22;2607;50.934;6.934;2023-08-06T05:22:22;15.50;99.90
5176;DHT22;2607;50.934;6.934;2023-08-06T05:24:48;15.50;99.90
5176;DHT22;2607;50.934;6.934;2023-08-06T05:27:13;15.60;99.90
5176;DHT22;2607;50.934;6.934;2023-08-06T05:29:39;15.70;99.90
5176;DHT22;2607;50.934;6.934;2023-08-06T05:32:05;15.60;99.90
5176;DHT22;2607;50.934;6.934;2023-08-06T05:34:30;15.70;99.90
5176;DHT22;2607;50.934;6.934;2023-08-06T05:36:56;15.70;99.90
5176;DHT22;2607;50.934;6.934;2023-08-06T05:39:21;15.80;99.90
5176;DHT22;2607;50.934;6.934;2023-08-06T05:41:47;15.80;99.90
5176;DHT22;2607;50.934;6.934;2023-08-06T05:44:12;15.80;99.90
5176;DHT22;2607;50.934;6.934;2023-08-06T05:46:38;15.80;99.90
5176;DHT22;2607;50.934;6.934;2023-08-06T05:49:03;15.80;99.90
5176;DHT22;2607;50.934;6.934;2023-08-06T05:51:30;15.90;99.90
5176;DHT22;2607;50.934;6.934;2023-08-06T05:53:55;15.90;99.90
5176;DHT22;2607;50.934;6.934;2023-08-06T05:56:21;15.90;99.90
5176;DHT22;2607;50.934;6.934;2023-08-06T05:58:47;15.90;99.90
5176;DHT22;2607;50.934;6.934;2023-08-06T06:01:13;16.00;99.90
5176;DHT22;2607;50.934;6.934;2023-08-06T06:03:38;16.00;99.90
5176;DHT22;2607;50.934;6.934;2023-08-06T06:06:04;16.00;99.90
5176;DHT22;2607;50.934;6.934;2023-08-06T06:08:29;16.00;99.90
5176;DHT22;2607;50.934;6.934;2023-08-06T06:10:55;16.00;99.90
5176;DHT22;2607;50.934;6.934;2023-08-06T06:13:20;16.00;99.90
5176;DHT22;2607;50.934;6.934;2023-08-06T06:15:46;16.00;99.90
5176;DHT22;2607;50.934;6.934;2023-08-06T06:18:13;16.00;99.90
5176;DHT22;2607;50.934;6.934;2023-08-06T06:20:38;16.00;99.90
5176;DHT22;2607;50.934;6.934;2023-08-06T06:23:04;16.00;99.90
5176;DHT22;2607;50.934;6.934;2023-08-06T06:25:29;16.00;99.90
5176;DHT22;2607;50.934;6.934;2023-08-06T06:27:55;16.00;99.90
5176;DHT22;2607;50.934;6.934;2023-08-06T06:30:21;16.00;99.90
5176;DHT22;2607;50.934;6.934;2023-08-06T06:32:47;16.00;99.90
5176;DHT22;2607;50.934;6.934;2023-08-06T06:35:12;16.00;99.90
5176;DHT22;2607;50.934;6.934;2023-08-06T06:37:38;16.00;99.90
5176;DHT22;2607;50.934;6.934;2023-08-06T06:40:04;16.00;99.90
5176;DHT22;2607;50.934;6.934;2023-08-06T06:42:30;16.00;99.90
5176;DHT22;2607;50.934;6.934;2023-08-06T06:44:55;16.00;99.90
5176;DHT22;2607;50.934;6.934;2023-08-06T06:47:21;16.00;99.90
5176;DHT22;2607;50.934;6.934;2023-08-06T06:49:46;16.00;99.90
5176;DHT22;2607;50.934;6.934;2023-08-06T06:52:12;15.90;99.90
5176;DHT22;2607;50.934;6.934;2023-08-06T06:54:37;15.90;99.90
5176;DHT22;2607;50.934;6.934;2023-08-06T06:57:03;15.80;99.90
5176;DHT22;2607;50.934;6.934;2023-08-06T06:59:29;15.80;99.90
5176;DHT22;2607;50.934;6.934;2023-08-06T07:01:55;15.80;99.90
5176;DHT22;2607;50.934;6.934;2023-08-06T07:04:21;15.80;99.90
5176;DHT22;2607;50.934;6.934;2023-08-06T07:06:47;15.80;99.90
5176;DHT22;2607;50.934;6.934;2023-08-06T07:09:12;15.80;99.90
5176;DHT22;2607;50.934;6.934;2023-08-06T07:11:38;15.80;99.90
5176;DHT22;2607;50.934;6.934;2023-08-06T07:14:04;15.80;99.90
5176;DHT22;2607;50.934;6.934;2023-08-06T07:16:29;15.80;99.90
5176;DHT22;2607;50.934;6.934;2023-08-06T07:18:55;15.80;99.90
5176;DHT22;2607;50.934;6.934;2023-08-06T07:21:21;15.80;99.90
5176;DHT22;2607;50.934;6.934;2023-08-06T07:23:46;15.80;99.90
5176;DHT22;2607;50.934;6.934;2023-08-06T07:26:15;15.80;99.90
5176;DHT22;2607;50.934;6.934;2023-08-06T07:28:40;15.80;99.90
5176;DHT22;2607;50.934;6.934;2023-08-06T07:31:06;15.80;99.90
5176;DHT22;2607;50.934;6.934;2023-08-06T07:33:31;15.80;99.90
5176;DHT22;2607;50.934;6.934;2023-08-06T07:35:57;15.80;99.90
5176;DHT22;2607;50.934;6.934;2023-08-06T07:38:22;15.80;99.90
5176;DHT22;2607;50.934;6.934;2023-08-06T07:40:48;15.80;99.90
5176;DHT22;2607;50.934;6.934;2023-08-06T07:43:14;15.80;99.90
5176;DHT22;2607;50.934;6.934;2023-08-06T07:45:39;15.90;99.90
5176;DHT22;2607;50.934;6.934;2023-08-06T07:48:05;15.90;99.90
5176;DHT22;2607;50.934;6.934;2023-08-06T07:50:31;15.90;99.90
5176;DHT22;2607;50.934;6.934;2023-08-06T07:52:57;16.00;99.90
5176;DHT22;2607;50.934;6.934;2023-08-06T07:55:22;16.10;99.90
5176;DHT22;2607;50.934;6.934;2023-08-06T07:57:48;16.10;99.90
5176;DHT22;2607;50.934;6.934;2023-08-06T08:00:13;16.20;99.90
5176;DHT22;2607;50.934;6.934;2023-08-06T08:02:39;16.30;99.90
5176;DHT22;2607;50.934;6.934;2023-08-06T08:05:05;16.30;99.90
5176;DHT22;2607;50.934;6.934;2023-08-06T08:07:32;16.40;99.90
5176;DHT22;2607;50.934;6.934;2023-08-06T08:09:58;16.30;99.90
5176;DHT22;2607;50.934;6.934;2023-08-06T08:12:23;16.30;99.90
5176;DHT22;2607;50.934;6.934;2023-08-06T08:14:49;16.30;99.90
5176;DHT22;2607;50.934;6.934;2023-08-06T08:17:15;16.30;99.90
5176;DHT22;2607;50.934;6.934;2023-08-06T08:19:40;16.30;99.90
5176;DHT22;2607;50.934;6.934;2023-08-06T08:22:06;16.30;99.90
5176;DHT22;2607;50.934;6.934;2023-08-06T08:24:32;16.40;99.90
5176;DHT22;2607;50.934;6.934;2023-08-06T08:26:57;16.40;99.90
5176;DHT22;2607;50.934;6.934;2023-08-06T08:29:23;16.50;99.90
5176;DHT22;2607;50.934;6.934;2023-08-06T08:31:49;16.50;99.90
5176;DHT22;2607;50.934;6.934;2023-08-06T08:34:16;16.60;99.90
5176;DHT22;2607;50.934;6.934;2023-08-06T08:36:41;16.60;99.90
5176;DHT22;2607;50.934;6.934;2023-08-06T08:39:07;16.70;99.90
5176;DHT22;2607;50.934;6.934;2023-08-06T08:41:33;16.70;99.90
5176;DHT22;2607;50.934;6.934;2023-08-06T08:43:59;16.70;99.90
5176;DHT22;2607;50.934;6.934;2023-08-06T08:46:30;16.60;99.90
5176;DHT22;2607;50.934;6.934;2023-08-06T08:48:59;16.60;99.90
5176;DHT22;2607;50.934;6.934;2023-08-06T08:51:27;16.60;99.90
5176;DHT22;2607;50.934;6.934;2023-08-06T08:53:53;16.60;99.90
5176;DHT22;2607;50.934;6.934;2023-08-06T08:56:23;16.60;99.90
5176;DHT22;2607;50.934;6.934;2023-08-06T08:58:49;16.60;99.90
5176;DHT22;2607;50.934;6.934;2023-08-06T09:01:16;16.70;99.90
5176;DHT22;2607;50.934;6.934;2023-08-06T09:03:43;16.70;99.90
5176;DHT22;2607;50.934;6.934;2023-08-06T09:06:11;16.70;99.90
5176;DHT22;2607;50.934;6.934;2023-08-06T09:08:43;16.70;99.90
5176;DHT22;2607;50.934;6.934;2023-08-06T09:11:12;16.80;99.90
5176;DHT22;2607;50.934;6.934;2023-08-06T09:13:38;16.80;99.90
5176;DHT22;2607;50.934;6.934;2023-08-06T09:16:04;16.80;99.90
5176;DHT22;2607;50.934;6.934;2023-08-06T09:18:30;16.80;99.90
5176;DHT22;2607;50.934;6.934;2023-08-06T09:20:57;16.80;99.90
5176;DHT22;2607;50.934;6.934;2023-08-06T09:23:29;16.80;99.90
5176;DHT22;2607;50.934;6.934;2023-08-06T09:25:56;16.80;99.90
5176;DHT22;2607;50.934;6.934;2023-08-06T09:28:22;16.80;99.90
5176;DHT22;2607;50.934;6.934;2023-08-06T09:30:50;16.80;99.90
5176;DHT22;2607;50.934;6.934;2023-08-06T09:33:19;16.80;99.90
5176;DHT22;2607;50.934;6.934;2023-08-06T09:35:46;16.90;99.90
5176;DHT22;2607;50.934;6.934;2023-08-06T09:38:12;16.80;99.90
5176;DHT22;2607;50.934;6.934;2023-08-06T09:40:39;16.80;99.90
5176;DHT22;2607;50.934;6.934;2023-08-06T09:43:05;16.70;99.90
5176;DHT22;2607;50.934;6.934;2023-08-06T09:45:32;16.70;99.90
5176;DHT22;2607;50.934;6.934;2023-08-06T09:47:59;16.60;99.90
5176;DHT22;2607;50.934;6.934;2023-08-06T09:50:31;16.60;99.90
5176;DHT22;2607;50.934;6.934;2023-08-06T09:52:57;16.60;99.90
5176;DHT22;2607;50.934;6.934;2023-08-06T09:55:24;16.60;99.90
5176;DHT22;2607;50.934;6.934;2023-08-06T09:57:52;16.60;99.90
5176;DHT22;2607;50.934;6.934;2023-08-06T10:00:17;16.60;99.90
5176;DHT22;2607;50.934;6.934;2023-08-06T10:02:43;16.60;99.90
5176;DHT22;2607;50.934;6.934;2023-08-06T10:05:10;16.70;99.90
5176;DHT22;2607;50.934;6.934;2023-08-06T10:07:36;16.60;99.90
5176;DHT22;2607;50.934;6.934;2023-08-06T10:10:04;16.60;99.90
5176;DHT22;2607;50.934;6.934;2023-08-06T10:12:34;16.50;99.90
5176;DHT22;2607;50.934;6.934;2023-08-06T10:15:03;16.40;99.90
5176;DHT22;2607;50.934;6.934;2023-08-06T10:17:31;16.30;99.90
5176;DHT22;2607;50.934;6.934;2023-08-06T10:19:58;16.20;99.90
5176;DHT22;2607;50.934;6.934;2023-08-06T10:22:24;16.00;99.90
5176;DHT22;2607;50.934;6.934;2023-08-06T10:24:55;15.90;99.90
5176;DHT22;2607;50.934;6.934;2023-08-06T10:27:40;15.70;99.90
5176;DHT22;2607;50.934;6.934;2023-08-06T10:32:53;15.50;99.90
5176;DHT22;2607;50.934;6.934;2023-08-06T10:35:34;15.50;99.90
5176;DHT22;2607;50.934;6.934;2023-08-06T10:38:08;15.40;99.90
5176;DHT22;2607;50.934;6.934;2023-08-06T10:40:39;15.30;99.90
5176;DHT22;2607;50.934;6.934;2023-08-06T10:43:05;15.30;99.90
5176;DHT22;2607;50.934;6.934;2023-08-06T10:45:36;15.20;99.90
5176;DHT22;2607;50.934;6.934;2023-08-06T10:48:02;15.20;99.90
5176;DHT22;2607;50.934;6.934;2023-08-06T10:50:28;15.10;99.90
5176;DHT22;2607;50.934;6.934;2023-08-06T10:52:54;15.10;99.90
5176;DHT22;2607;50.934;6.934;2023-08-06T10:55:29;15.00;99.90
5176;DHT22;2607;50.934;6.934;2023-08-06T10:57:56;15.00;99.90
5176;DHT22;2607;50.934;6.934;2023-08-06T11:00:23;14.90;99.90
5176;DHT22;2607;50.934;6.934;2023-08-06T11:02:49;14.90;99.90
5176;DHT22;2607;50.934;6.934;2023-08-06T11:05:15;14.90;99.90
5176;DHT22;2607;50.934;6.934;2023-08-06T11:07:42;14.80;99.90
5176;DHT22;2607;50.934;6.934;2023-08-06T11:10:09;14.80;99.90
5176;DHT22;2607;50.934;6.934;2023-08-06T11:12:36;14.80;99.90
5176;DHT22;2607;50.934;6.934;2023-08-06T11:15:03;14.70;99.90
5176;DHT22;2607;50.934;6.934;2023-08-06T11:17:30;14.70;99.90
5176;DHT22;2607;50.934;6.934;2023-08-06T11:19:56;14.70;99.90
5176;DHT22;2607;50.934;6.934;2023-08-06T11:22:22;14.60;99.90
5176;DHT22;2607;50.934;6.934;2023-08-06T11:24:48;14.60;99.90
5176;DHT22;2607;50.934;6.934;2023-08-06T11:27:15;14.60;99.90
5176;DHT22;2607;50.934;6.934;2023-08-06T11:29:42;14.60;99.90
5176;DHT22;2607;50.934;6.934;2023-08-06T11:32:09;14.60;99.90
5176;DHT22;2607;50.934;6.934;2023-08-06T11:34:35;14.60;99.90
5176;DHT22;2607;50.934;6.934;2023-08-06T11:37:02;14.60;99.90
5176;DHT22;2607;50.934;6.934;2023-08-06T11:39:28;14.70;99.90
5176;DHT22;2607;50.934;6.934;2023-08-06T11:41:54;14.70;99.90
5176;DHT22;2607;50.934;6.934;2023-08-06T11:44:20;14.80;99.90
5176;DHT22;2607;50.934;6.934;2023-08-06T11:46:55;14.80;99.90
5176;DHT22;2607;50.934;6.934;2023-08-06T11:49:46;14.80;99.90
5176;DHT22;2607;50.934;6.934;2023-08-06T11:52:22;14.90;99.90
5176;DHT22;2607;50.934;6.934;2023-08-06T11:55:05;14.90;99.90
5176;DHT22;2607;50.934;6.934;2023-08-06T11:57:33;14.90;99.90
5176;DHT22;2607;50.934;6.934;2023-08-06T12:00:08;14.90;99.90
5176;DHT22;2607;50.934;6.934;2023-08-06T12:02:34;15.00;99.90
5176;DHT22;2607;50.934;6.934;2023-08-06T12:07:50;15.10;99.90
5176;DHT22;2607;50.934;6.934;2023-08-06T12:10:16;15.10;99.90
5176;DHT22;2607;50.934;6.934;2023-08-06T12:12:42;15.10;99.90
5176;DHT22;2607;50.934;6.934;2023-08-06T12:15:08;15.20;99.90
5176;DHT22;2607;50.934;6.934;2023-08-06T12:17:35;15.30;99.90
5176;DHT22;2607;50.934;6.934;2023-08-06T12:20:04;15.30;99.90
5176;DHT22;2607;50.934;6.934;2023-08-06T12:22:31;15.40;99.90
5176;DHT22;2607;50.934;6.934;2023-08-06T12:25:00;15.40;99.90
5176;DHT22;2607;50.934;6.934;2023-08-06T12:27:26;15.50;99.90
5176;DHT22;2607;50.934;6.934;2023-08-06T12:29:52;15.50;99.90
5176;DHT22;2607;50.934;6.934;2023-08-06T12:32:17;15.50;99.90
5176;DHT22;2607;50.934;6.934;2023-08-06T12:34:44;15.40;99.90
5176;DHT22;2607;50.934;6.934;2023-08-06T12:37:10;15.40;99.90
5176;DHT22;2607;50.934;6.934;2023-08-06T12:39:36;15.40;99.90
5176;DHT22;2607;50.934;6.934;2023-08-06T12:42:03;15.40;99.90
5176;DHT22;2607;50.934;6.934;2023-08-06T12:44:29;15.30;99.90
5176;DHT22;2607;50.934;6.934;2023-08-06T12:46:55;15.30;99.90
5176;DHT22;2607;50.934;6.934;2023-08-06T12:49:21;15.20;99.90
5176;DHT22;2607;50.934;6.934;2023-08-06T12:51:50;15.10;99.90
5176;DHT22;2607;50.934;6.934;2023-08-06T12:54:17;15.10;99.90
5176;DHT22;2607;50.934;6.934;2023-08-06T12:56:43;15.10;99.90
5176;DHT22;2607;50.934;6.934;2023-08-06T12:59:09;15.10;99.90
5176;DHT22;2607;50.934;6.934;2023-08-06T13:01:35;15.10;99.90
5176;DHT22;2607;50.934;6.934;2023-08-06T13:04:00;15.10;99.90
5176;DHT22;2607;50.934;6.934;2023-08-06T13:06:26;15.10;99.90
5176;DHT22;2607;50.934;6.934;2023-08-06T13:08:52;15.20;99.90
5176;DHT22;2607;50.934;6.934;2023-08-06T13:11:17;15.30;99.90
5176;DHT22;2607;50.934;6.934;2023-08-06T13:13:44;15.30;99.90
5176;DHT22;2607;50.934;6.934;2023-08-06T13:16:09;15.30;99.90
5176;DHT22;2607;50.934;6.934;2023-08-06T13:18:35;15.40;99.90
5176;DHT22;2607;50.934;6.934;2023-08-06T13:21:01;15.40;99.90
5176;DHT22;2607;50.934;6.934;2023-08-06T13:23:26;15.40;99.90
5176;DHT22;2607;50.934;6.934;2023-08-06T13:25:52;15.40;99.90
5176;DHT22;2607;50.934;6.934;2023-08-06T13:28:18;15.40;99.90
5176;DHT22;2607;50.934;6.934;2023-08-06T13:30:43;15.40;99.90
5176;DHT22;2607;50.934;6.934;2023-08-06T13:33:09;15.40;99.90
5176;DHT22;2607;50.934;6.934;2023-08-06T13:35:35;15.40;99.90
5176;DHT22;2607;50.934;6.934;2023-08-06T13:38:01;15.30;99.90
5176;DHT22;2607;50.934;6.934;2023-08-06T13:40:31;15.40;99.90
5176;DHT22;2607;50.934;6.934;2023-08-06T13:42:57;15.40;99.90
5176;DHT22;2607;50.934;6.934;2023-08-06T13:45:23;15.30;99.90
5176;DHT22;2607;50.934;6.934;2023-08-06T13:47:49;15.40;99.90
5176;DHT22;2607;50.934;6.934;2023-08-06T13:50:14;15.40;99.90
5176;DHT22;2607;50.934;6.934;2023-08-06T13:52:40;15.40;99.90
5176;DHT22;2607;50.934;6.934;2023-08-06T13:55:06;15.40;99.90
5176;DHT22;2607;50.934;6.934;2023-08-06T13:57:33;15.40;99.90
5176;DHT22;2607;50.934;6.934;2023-08-06T13:59:59;15.40;99.90
5176;DHT22;2607;50.934;6.934;2023-08-06T14:02:25;15.30;99.90
5176;DHT22;2607;50.934;6.934;2023-08-06T14:04:52;15.30;99.90
5176;DHT22;2607;50.934;6.934;2023-08-06T14:07:18;15.20;99.90
5176;DHT22;2607;50.934;6.934;2023-08-06T14:09:43;15.20;99.90
5176;DHT22;2607;50.934;6.934;2023-08-06T14:12:09;15.20;99.90
5176;DHT22;2607;50.934;6.934;2023-08-06T14:14:35;15.30;99.90
5176;DHT22;2607;50.934;6.934;2023-08-06T14:17:01;15.30;99.90
5176;DHT22;2607;50.934;6.934;2023-08-06T14:19:26;15.40;99.90
5176;DHT22;2607;50.934;6.934;2023-08-06T14:21:52;15.40;99.90
5176;DHT22;2607;50.934;6.934;2023-08-06T14:24:18;15.40;99.90
5176;DHT22;2607;50.934;6.934;2023-08-06T14:26:44;15.40;99.90
5176;DHT22;2607;50.934;6.934;2023-08-06T14:29:09;15.50;99.90
5176;DHT22;2607;50.934;6.934;2023-08-06T14:31:35;15.50;99.90
5176;DHT22;2607;50.934;6.934;2023-08-06T14:34:00;15.50;99.90
5176;DHT22;2607;50.934;6.934;2023-08-06T14:36:26;15.50;99.90
5176;DHT22;2607;50.934;6.934;2023-08-06T14:38:52;15.40;99.90
5176;DHT22;2607;50.934;6.934;2023-08-06T14:41:17;15.40;99.90
5176;DHT22;2607;50.934;6.934;2023-08-06T14:43:43;15.30;99.90
5176;DHT22;2607;50.934;6.934;2023-08-06T14:46:08;15.30;99.90
5176;DHT22;2607;50.934;6.934;2023-08-06T14:48:34;15.30;99.90
5176;DHT22;2607;50.934;6.934;2023-08-06T14:50:59;15.30;99.90
5176;DHT22;2607;50.934;6.934;2023-08-06T14:53:25;15.30;99.90
5176;DHT22;2607;50.934;6.934;2023-08-06T14:55:50;15.20;99.90
5176;DHT22;2607;50.934;6.934;2023-08-06T14:58:16;15.30;99.90
5176;DHT22;2607;50.934;6.934;2023-08-06T15:00:41;15.40;99.90
5176;DHT22;2607;50.934;6.934;2023-08-06T15:03:07;15.40;99.90
5176;DHT22;2607;50.934;6.934;2023-08-06T15:05:33;15.40;99.90
5176;DHT22;2607;50.934;6.934;2023-08-06T15:07:59;15.40;99.90
5176;DHT22;2607;50.934;6.934;2023-08-06T15:10:24;15.50;99.90
5176;DHT22;2607;50.934;6.934;2023-08-06T15:12:50;15.50;99.90
5176;DHT22;2607;50.934;6.934;2023-08-06T15:15:16;15.50;99.90
5176;DHT22;2607;50.934;6.934;2023-08-06T15:17:41;15.60;99.90
5176;DHT22;2607;50.934;6.934;2023-08-06T15:20:07;15.60;99.90
5176;DHT22;2607;50.934;6.934;2023-08-06T15:22:33;15.60;99.90
5176;DHT22;2607;50.934;6.934;2023-08-06T15:25:02;15.60;99.90
5176;DHT22;2607;50.934;6.934;2023-08-06T15:27:29;15.70;99.90
5176;DHT22;2607;50.934;6.934;2023-08-06T15:29:55;15.70;99.90
5176;DHT22;2607;50.934;6.934;2023-08-06T15:32:20;15.70;99.90
5176;DHT22;2607;50.934;6.934;2023-08-06T15:34:48;15.70;99.90
5176;DHT22;2607;50.934;6.934;2023-08-06T15:37:13;15.60;99.90
5176;DHT22;2607;50.934;6.934;2023-08-06T15:39:39;15.60;99.90
5176;DHT22;2607;50.934;6.934;2023-08-06T15:42:06;15.60;99.90
5176;DHT22;2607;50.934;6.934;2023-08-06T15:44:31;15.60;99.90
5176;DHT22;2607;50.934;6.934;2023-08-06T15:46:57;15.60;99.90
5176;DHT22;2607;50.934;6.934;2023-08-06T15:49:22;15.60;99.90
5176;DHT22;2607;50.934;6.934;2023-08-06T15:51:48;15.60;99.90
5176;DHT22;2607;50.934;6.934;2023-08-06T15:54:14;15.50;99.90
5176;DHT22;2607;50.934;6.934;2023-08-06T15:56:39;15.50;99.90
5176;DHT22;2607;50.934;6.934;2023-08-06T15:59:24;15.50;99.90
5176;DHT22;2607;50.934;6.934;2023-08-06T16:01:50;15.50;99.90
5176;DHT22;2607;50.934;6.934;2023-08-06T16:04:16;15.50;99.90
5176;DHT22;2607;50.934;6.934;2023-08-06T16:06:42;15.50;99.90
5176;DHT22;2607;50.934;6.934;2023-08-06T16:09:07;15.50;99.90
5176;DHT22;2607;50.934;6.934;2023-08-06T16:11:33;15.40;99.90
5176;DHT22;2607;50.934;6.934;2023-08-06T16:13:59;15.40;99.90